Terminal Aerodrome Forecast
Issued by NWS

Home | Current Version | Previous Version | Text Only | Print | Product List | Glossary On
Versions: 1 2 3 4 5 6 7 8 9 10 11 12 13 14 15 16
000
FTUS43 KOAX 250218 AAA
TAFCDR
TAF AMD
KCDR 250218Z 2502/2524 17018G30KT P6SM VCSH BKN080
      TEMPO 2502/2504 VRB25G45KT -SHRA BKN050
     FM250800 31006KT P6SM SCT090
     FM251600 32010KT P6SM BKN090=

USA.gov is the U.S. government's official web portal to all federal, state and local government web resources and services.